sensor_id;sensor_type;location;lat;lon;timestamp;pressure;altitude;pressure_sealevel;temperature;humidity
9059;BME280;4564;42.034;25.834;2022-09-16T00:00:02;99487.13;;;21.90;67.98
9059;BME280;4564;42.034;25.834;2022-09-16T00:02:29;99492.13;;;21.77;68.32
9059;BME280;4564;42.034;25.834;2022-09-16T00:04:55;99496.84;;;21.72;69.23
9059;BME280;4564;42.034;25.834;2022-09-16T00:07:22;99489.66;;;21.66;69.20
9059;BME280;4564;42.034;25.834;2022-09-16T00:09:49;99493.81;;;21.68;68.88
9059;BME280;4564;42.034;25.834;2022-09-16T00:12:15;99495.78;;;21.53;69.78
9059;BME280;4564;42.034;25.834;2022-09-16T00:14:43;99491.38;;;21.47;69.68
9059;BME280;4564;42.034;25.834;2022-09-16T00:17:10;99488.63;;;21.42;69.72
9059;BME280;4564;42.034;25.834;2022-09-16T00:19:36;99490.56;;;21.36;70.03
9059;BME280;4564;42.034;25.834;2022-09-16T00:22:03;99493.59;;;21.34;70.20
9059;BME280;4564;42.034;25.834;2022-09-16T00:24:30;99490.56;;;21.31;70.30
9059;BME280;4564;42.034;25.834;2022-09-16T00:26:56;99490.25;;;21.32;70.31
9059;BME280;4564;42.034;25.834;2022-09-16T00:29:23;99484.47;;;21.39;69.80
9059;BME280;4564;42.034;25.834;2022-09-16T00:31:51;99486.97;;;21.41;69.96
9059;BME280;4564;42.034;25.834;2022-09-16T00:34:17;99480.34;;;21.37;69.83
9059;BME280;4564;42.034;25.834;2022-09-16T00:36:44;99470.41;;;21.30;70.26
9059;BME280;4564;42.034;25.834;2022-09-16T00:39:10;99473.69;;;21.32;69.98
9059;BME280;4564;42.034;25.834;2022-09-16T00:41:38;99475.38;;;21.28;69.92
9059;BME280;4564;42.034;25.834;2022-09-16T00:44:05;99485.06;;;21.26;70.07
9059;BME280;4564;42.034;25.834;2022-09-16T00:46:34;99480.38;;;21.21;69.87
9059;BME280;4564;42.034;25.834;2022-09-16T00:49:03;99473.16;;;21.30;69.69
9059;BME280;4564;42.034;25.834;2022-09-16T00:51:31;99476.19;;;21.44;68.82
9059;BME280;4564;42.034;25.834;2022-09-16T00:53:58;99472.06;;;21.37;69.07
9059;BME280;4564;42.034;25.834;2022-09-16T00:56:27;99472.34;;;21.30;69.62
9059;BME280;4564;42.034;25.834;2022-09-16T00:58:56;99472.34;;;21.30;69.70
9059;BME280;4564;42.034;25.834;2022-09-16T01:01:27;99473.97;;;21.41;69.05
9059;BME280;4564;42.034;25.834;2022-09-16T01:03:54;99472.59;;;21.39;69.19
9059;BME280;4564;42.034;25.834;2022-09-16T01:06:23;99468.75;;;21.29;69.42
9059;BME280;4564;42.034;25.834;2022-09-16T01:08:51;99470.13;;;21.27;70.09
9059;BME280;4564;42.034;25.834;2022-09-16T01:11:17;99474.84;;;21.26;69.78
9059;BME280;4564;42.034;25.834;2022-09-16T01:13:44;99478.41;;;21.17;70.37
9059;BME280;4564;42.034;25.834;2022-09-16T01:16:13;99485.81;;;21.11;70.29
9059;BME280;4564;42.034;25.834;2022-09-16T01:18:45;99489.16;;;21.03;70.68
9059;BME280;4564;42.034;25.834;2022-09-16T01:21:30;99490.25;;;21.02;70.57
9059;BME280;4564;42.034;25.834;2022-09-16T01:24:20;99486.41;;;20.93;70.74
9059;BME280;4564;42.034;25.834;2022-09-16T01:26:57;99480.88;;;20.88;70.75
9059;BME280;4564;42.034;25.834;2022-09-16T01:32:16;99482.53;;;20.99;70.96
9059;BME280;4564;42.034;25.834;2022-09-16T01:34:48;99482.53;;;20.89;71.01
9059;BME280;4564;42.034;25.834;2022-09-16T01:37:19;99485.81;;;20.86;70.99
9059;BME280;4564;42.034;25.834;2022-09-16T01:39:52;99493.28;;;20.90;71.31
9059;BME280;4564;42.034;25.834;2022-09-16T01:42:24;99495.75;;;20.92;71.30
9059;BME280;4564;42.034;25.834;2022-09-16T01:44:54;99502.38;;;20.86;71.20
9059;BME280;4564;42.034;25.834;2022-09-16T01:47:28;99499.63;;;20.86;71.54
9059;BME280;4564;42.034;25.834;2022-09-16T01:49:57;99495.19;;;20.90;71.30
9059;BME280;4564;42.034;25.834;2022-09-16T01:52:31;99494.09;;;21.01;70.79
9059;BME280;4564;42.034;25.834;2022-09-16T01:55:00;99493.53;;;20.84;71.12
9059;BME280;4564;42.034;25.834;2022-09-16T01:57:30;99502.34;;;20.71;71.80
9059;BME280;4564;42.034;25.834;2022-09-16T02:00:01;99506.22;;;20.75;71.87
9059;BME280;4564;42.034;25.834;2022-09-16T02:02:30;99498.22;;;20.73;71.93
9059;BME280;4564;42.034;25.834;2022-09-16T02:04:58;99514.47;;;20.65;72.13
9059;BME280;4564;42.034;25.834;2022-09-16T02:07:30;99510.88;;;20.64;72.14
9059;BME280;4564;42.034;25.834;2022-09-16T02:10:00;99510.88;;;20.59;72.06
9059;BME280;4564;42.034;25.834;2022-09-16T02:12:31;99511.97;;;20.58;72.37
9059;BME280;4564;42.034;25.834;2022-09-16T02:15:01;99520.78;;;20.50;72.66
9059;BME280;4564;42.034;25.834;2022-09-16T02:17:31;99522.69;;;20.39;73.08
9059;BME280;4564;42.034;25.834;2022-09-16T02:19:59;99516.59;;;20.32;73.20
9059;BME280;4564;42.034;25.834;2022-09-16T02:22:30;99515.44;;;20.28;73.50
9059;BME280;4564;42.034;25.834;2022-09-16T02:24:58;99525.44;;;20.39;73.33
9059;BME280;4564;42.034;25.834;2022-09-16T02:27:26;99535.91;;;20.42;72.92
9059;BME280;4564;42.034;25.834;2022-09-16T02:29:55;99539.16;;;20.29;73.30
9059;BME280;4564;42.034;25.834;2022-09-16T02:32:24;99527.78;;;20.21;73.73
9059;BME280;4564;42.034;25.834;2022-09-16T02:34:54;99532.22;;;20.27;73.63
9059;BME280;4564;42.034;25.834;2022-09-16T02:37:22;99533.69;;;20.34;73.83
9059;BME280;4564;42.034;25.834;2022-09-16T02:39:52;99538.56;;;20.22;73.88
9059;BME280;4564;42.034;25.834;2022-09-16T02:42:20;99534.97;;;20.22;73.86
9059;BME280;4564;42.034;25.834;2022-09-16T02:44:47;99541.28;;;20.17;73.93
9059;BME280;4564;42.034;25.834;2022-09-16T02:47:15;99534.66;;;20.13;74.09
9059;BME280;4564;42.034;25.834;2022-09-16T02:49:46;99532.44;;;20.10;74.72
9059;BME280;4564;42.034;25.834;2022-09-16T02:52:21;99535.22;;;20.15;75.01
9059;BME280;4564;42.034;25.834;2022-09-16T02:54:51;99525.84;;;20.16;75.27
9059;BME280;4564;42.034;25.834;2022-09-16T02:57:21;99531.38;;;20.16;75.31
9059;BME280;4564;42.034;25.834;2022-09-16T02:59:48;99532.97;;;20.07;75.41
9059;BME280;4564;42.034;25.834;2022-09-16T03:02:14;99538.44;;;19.97;75.92
9059;BME280;4564;42.034;25.834;2022-09-16T03:04:41;99542.25;;;19.91;76.60
9059;BME280;4564;42.034;25.834;2022-09-16T03:07:08;99543.94;;;19.97;76.33
9059;BME280;4564;42.034;25.834;2022-09-16T03:09:38;99535.66;;;19.92;76.55
9059;BME280;4564;42.034;25.834;2022-09-16T03:12:19;99535.13;;;20.00;76.48
9059;BME280;4564;42.034;25.834;2022-09-16T03:15:01;99522.72;;;19.97;76.52
9059;BME280;4564;42.034;25.834;2022-09-16T03:20:20;99532.06;;;19.91;76.71
9059;BME280;4564;42.034;25.834;2022-09-16T03:22:49;99537.81;;;19.85;76.95
9059;BME280;4564;42.034;25.834;2022-09-16T03:25:21;99541.84;;;19.72;77.35
9059;BME280;4564;42.034;25.834;2022-09-16T03:27:49;99533.06;;;19.70;77.47
9059;BME280;4564;42.034;25.834;2022-09-16T03:30:17;99522.94;;;19.81;77.54
9059;BME280;4564;42.034;25.834;2022-09-16T03:32:46;99517.47;;;19.91;77.08
9059;BME280;4564;42.034;25.834;2022-09-16T03:35:15;99526.28;;;19.93;76.94
9059;BME280;4564;42.034;25.834;2022-09-16T03:37:43;99528.69;;;19.79;77.45
9059;BME280;4564;42.034;25.834;2022-09-16T03:40:11;99537.44;;;19.71;77.36
9059;BME280;4564;42.034;25.834;2022-09-16T03:42:41;99541.03;;;19.72;77.87
9059;BME280;4564;42.034;25.834;2022-09-16T03:45:09;99531.97;;;19.76;77.40
9059;BME280;4564;42.034;25.834;2022-09-16T03:47:38;99534.66;;;19.66;77.76
9059;BME280;4564;42.034;25.834;2022-09-16T03:50:05;99535.44;;;19.61;77.87
9059;BME280;4564;42.034;25.834;2022-09-16T03:52:32;99545.84;;;19.54;78.30
9059;BME280;4564;42.034;25.834;2022-09-16T03:54:58;99543.94;;;19.55;78.00
9059;BME280;4564;42.034;25.834;2022-09-16T03:57:25;99544.72;;;19.50;78.29
9059;BME280;4564;42.034;25.834;2022-09-16T03:59:56;99544.72;;;19.50;78.10
9059;BME280;4564;42.034;25.834;2022-09-16T04:02:22;99546.41;;;19.51;78.13
9059;BME280;4564;42.034;25.834;2022-09-16T04:04:49;99545.75;;;19.44;77.92
9059;BME280;4564;42.034;25.834;2022-09-16T04:07:16;99549.09;;;19.46;77.88
9059;BME280;4564;42.034;25.834;2022-09-16T04:09:42;99557.94;;;19.48;77.74
9059;BME280;4564;42.034;25.834;2022-09-16T04:12:09;99555.75;;;19.50;77.71
9059;BME280;4564;42.034;25.834;2022-09-16T04:14:35;99560.19;;;19.56;77.73
9059;BME280;4564;42.034;25.834;2022-09-16T04:17:03;99569.66;;;19.70;77.35
9059;BME280;4564;42.034;25.834;2022-09-16T04:19:30;99560.94;;;19.84;76.91
9059;BME280;4564;42.034;25.834;2022-09-16T04:21:57;99559.88;;;19.90;76.70
9059;BME280;4564;42.034;25.834;2022-09-16T04:24:24;99560.44;;;19.92;76.32
9059;BME280;4564;42.034;25.834;2022-09-16T04:26:50;99552.44;;;19.90;76.53
9059;BME280;4564;42.034;25.834;2022-09-16T04:29:17;99555.47;;;19.89;76.19
9059;BME280;4564;42.034;25.834;2022-09-16T04:31:44;99551.63;;;19.95;75.92
9059;BME280;4564;42.034;25.834;2022-09-16T04:34:12;99551.66;;;20.00;75.72
9059;BME280;4564;42.034;25.834;2022-09-16T04:36:39;99557.16;;;19.95;75.58
9059;BME280;4564;42.034;25.834;2022-09-16T04:39:06;99548.13;;;20.09;75.14
9059;BME280;4564;42.034;25.834;2022-09-16T04:41:32;99546.56;;;20.24;74.42
9059;BME280;4564;42.034;25.834;2022-09-16T04:43:59;99541.38;;;20.32;73.51
9059;BME280;4564;42.034;25.834;2022-09-16T04:46:26;99542.22;;;20.33;73.21
9059;BME280;4564;42.034;25.834;2022-09-16T04:48:53;99542.53;;;20.46;72.78
9059;BME280;4564;42.034;25.834;2022-09-16T04:51:22;99531.59;;;20.67;71.36
9059;BME280;4564;42.034;25.834;2022-09-16T04:53:50;99539.88;;;20.82;71.06
9059;BME280;4564;42.034;25.834;2022-09-16T04:56:17;99536.59;;;21.00;70.42
9059;BME280;4564;42.034;25.834;2022-09-16T04:58:45;99542.19;;;21.20;70.17
9059;BME280;4564;42.034;25.834;2022-09-16T05:01:12;99529.47;;;21.45;69.23
9059;BME280;4564;42.034;25.834;2022-09-16T05:03:40;99537.97;;;21.99;67.42
9059;BME280;4564;42.034;25.834;2022-09-16T05:06:08;99546.19;;;22.88;64.38
9059;BME280;4564;42.034;25.834;2022-09-16T05:08:36;99542.63;;;23.84;60.61
9059;BME280;4564;42.034;25.834;2022-09-16T05:11:04;99543.34;;;24.66;57.62
9059;BME280;4564;42.034;25.834;2022-09-16T05:13:31;99543.53;;;25.13;55.81
9059;BME280;4564;42.034;25.834;2022-09-16T05:16:00;99545.91;;;25.57;53.18
9059;BME280;4564;42.034;25.834;2022-09-16T05:18:26;99555.06;;;26.17;52.11
9059;BME280;4564;42.034;25.834;2022-09-16T05:20:55;99547.63;;;26.81;49.23
9059;BME280;4564;42.034;25.834;2022-09-16T05:23:21;99552.38;;;27.30;48.58
9059;BME280;4564;42.034;25.834;2022-09-16T05:25:50;99550.22;;;28.02;45.35
9059;BME280;4564;42.034;25.834;2022-09-16T05:28:16;99550.16;;;28.55;44.21
9059;BME280;4564;42.034;25.834;2022-09-16T05:30:43;99559.94;;;29.01;42.58
9059;BME280;4564;42.034;25.834;2022-09-16T05:33:09;99562.59;;;29.23;41.75
9059;BME280;4564;42.034;25.834;2022-09-16T05:35:36;99550.91;;;29.21;41.27
9059;BME280;4564;42.034;25.834;2022-09-16T05:38:03;99556.16;;;29.05;41.87
9059;BME280;4564;42.034;25.834;2022-09-16T05:40:30;99557.16;;;28.92;42.01
9059;BME280;4564;42.034;25.834;2022-09-16T05:42:58;99562.28;;;29.50;41.07
9059;BME280;4564;42.034;25.834;2022-09-16T05:45:24;99558.81;;;29.53;40.42
9059;BME280;4564;42.034;25.834;2022-09-16T05:47:51;99560.44;;;29.72;39.81
9059;BME280;4564;42.034;25.834;2022-09-16T05:50:18;99562.81;;;30.16;39.72
9059;BME280;4564;42.034;25.834;2022-09-16T05:52:45;99564.72;;;30.33;39.02
9059;BME280;4564;42.034;25.834;2022-09-16T05:55:12;99566.78;;;30.15;39.15
9059;BME280;4564;42.034;25.834;2022-09-16T05:57:38;99555.06;;;30.60;37.92
9059;BME280;4564;42.034;25.834;2022-09-16T06:00:07;99566.03;;;30.73;37.62
9059;BME280;4564;42.034;25.834;2022-09-16T06:02:34;99572.75;;;31.02;36.58
9059;BME280;4564;42.034;25.834;2022-09-16T06:05:01;99572.53;;;31.90;34.46
9059;BME280;4564;42.034;25.834;2022-09-16T06:07:28;99587.72;;;32.22;34.65
9059;BME280;4564;42.034;25.834;2022-09-16T06:09:54;99579.53;;;32.29;34.10
9059;BME280;4564;42.034;25.834;2022-09-16T06:12:21;99574.56;;;31.48;35.30
9059;BME280;4564;42.034;25.834;2022-09-16T06:14:48;99564.19;;;31.81;34.88
9059;BME280;4564;42.034;25.834;2022-09-16T06:17:16;99562.91;;;32.24;34.42
9059;BME280;4564;42.034;25.834;2022-09-16T06:19:42;99558.94;;;32.98;33.18
9059;BME280;4564;42.034;25.834;2022-09-16T06:22:09;99550.47;;;33.22;33.41
9059;BME280;4564;42.034;25.834;2022-09-16T06:24:35;99547.50;;;33.70;31.68
9059;BME280;4564;42.034;25.834;2022-09-16T06:27:02;99547.88;;;33.29;31.71
9059;BME280;4564;42.034;25.834;2022-09-16T06:29:29;99549.59;;;32.81;33.05
9059;BME280;4564;42.034;25.834;2022-09-16T06:31:55;99547.22;;;33.08;32.24
9059;BME280;4564;42.034;25.834;2022-09-16T06:34:24;99536.50;;;33.25;32.07
9059;BME280;4564;42.034;25.834;2022-09-16T06:36:51;99532.53;;;33.82;31.70
9059;BME280;4564;42.034;25.834;2022-09-16T06:39:17;99531.69;;;34.25;31.25
9059;BME280;4564;42.034;25.834;2022-09-16T06:41:44;99536.84;;;34.23;30.60
9059;BME280;4564;42.034;25.834;2022-09-16T06:44:11;99542.78;;;35.00;30.26
9059;BME280;4564;42.034;25.834;2022-09-16T06:46:37;99540.19;;;35.11;29.16
9059;BME280;4564;42.034;25.834;2022-09-16T06:49:04;99541.50;;;35.71;29.17
9059;BME280;4564;42.034;25.834;2022-09-16T06:51:32;99536.25;;;35.15;29.38
9059;BME280;4564;42.034;25.834;2022-09-16T06:54:00;99539.16;;;35.96;28.14
9059;BME280;4564;42.034;25.834;2022-09-16T06:56:27;99539.66;;;35.79;28.69
9059;BME280;4564;42.034;25.834;2022-09-16T06:58:53;99538.25;;;35.30;29.67
9059;BME280;4564;42.034;25.834;2022-09-16T07:01:22;99546.13;;;35.79;29.07
9059;BME280;4564;42.034;25.834;2022-09-16T07:03:49;99538.97;;;35.66;28.59
9059;BME280;4564;42.034;25.834;2022-09-16T07:06:17;99547.81;;;36.06;27.95
9059;BME280;4564;42.034;25.834;2022-09-16T07:08:45;99548.78;;;36.59;27.26
9059;BME280;4564;42.034;25.834;2022-09-16T07:11:13;99555.88;;;36.50;27.76
9059;BME280;4564;42.034;25.834;2022-09-16T07:13:40;99551.53;;;36.56;27.72
9059;BME280;4564;42.034;25.834;2022-09-16T07:16:09;99561.69;;;36.83;27.75
9059;BME280;4564;42.034;25.834;2022-09-16T07:18:36;99555.22;;;36.83;27.51
9059;BME280;4564;42.034;25.834;2022-09-16T07:21:03;99550.19;;;36.69;27.41
9059;BME280;4564;42.034;25.834;2022-09-16T07:23:30;99543.19;;;36.89;27.45
9059;BME280;4564;42.034;25.834;2022-09-16T07:26:03;99539.41;;;36.55;28.43
9059;BME280;4564;42.034;25.834;2022-09-16T07:28:31;99546.97;;;37.27;27.03
9059;BME280;4564;42.034;25.834;2022-09-16T07:30:59;99544.94;;;36.97;26.75
9059;BME280;4564;42.034;25.834;2022-09-16T07:33:26;99544.47;;;36.92;27.36
9059;BME280;4564;42.034;25.834;2022-09-16T07:35:56;99538.84;;;36.95;26.89
9059;BME280;4564;42.034;25.834;2022-09-16T07:38:22;99539.84;;;36.80;27.82
9059;BME280;4564;42.034;25.834;2022-09-16T07:40:49;99537.88;;;37.11;27.99
9059;BME280;4564;42.034;25.834;2022-09-16T07:43:17;99536.31;;;37.13;27.20
9059;BME280;4564;42.034;25.834;2022-09-16T07:45:44;99534.06;;;36.73;27.32
9059;BME280;4564;42.034;25.834;2022-09-16T07:48:10;99540.81;;;36.65;28.83
9059;BME280;4564;42.034;25.834;2022-09-16T07:50:37;99547.88;;;36.78;27.52
9059;BME280;4564;42.034;25.834;2022-09-16T07:53:04;99547.34;;;37.25;27.60
9059;BME280;4564;42.034;25.834;2022-09-16T07:55:33;99545.22;;;37.45;27.39
9059;BME280;4564;42.034;25.834;2022-09-16T07:57:59;99545.69;;;37.51;26.83
9059;BME280;4564;42.034;25.834;2022-09-16T08:00:28;99538.72;;;37.15;27.26
9059;BME280;4564;42.034;25.834;2022-09-16T08:02:55;99530.88;;;36.52;27.83
9059;BME280;4564;42.034;25.834;2022-09-16T08:05:22;99513.53;;;36.08;29.01
9059;BME280;4564;42.034;25.834;2022-09-16T08:07:48;99507.00;;;35.81;29.21
9059;BME280;4564;42.034;25.834;2022-09-16T08:10:15;99494.28;;;35.29;29.79
9059;BME280;4564;42.034;25.834;2022-09-16T08:12:45;99495.78;;;35.08;30.52
9059;BME280;4564;42.034;25.834;2022-09-16T08:15:11;99496.69;;;34.77;30.97
9059;BME280;4564;42.034;25.834;2022-09-16T08:17:39;99510.88;;;34.30;31.90
9059;BME280;4564;42.034;25.834;2022-09-16T08:20:06;99502.75;;;34.12;32.33
9059;BME280;4564;42.034;25.834;2022-09-16T08:22:32;99497.50;;;33.95;32.67
9059;BME280;4564;42.034;25.834;2022-09-16T08:24:59;99497.84;;;33.78;32.85
9059;BME280;4564;42.034;25.834;2022-09-16T08:27:26;99489.75;;;33.77;33.20
9059;BME280;4564;42.034;25.834;2022-09-16T08:29:52;99491.94;;;33.99;32.79
9059;BME280;4564;42.034;25.834;2022-09-16T08:32:19;99485.94;;;33.85;33.55
9059;BME280;4564;42.034;25.834;2022-09-16T08:34:47;99479.66;;;33.76;33.86
9059;BME280;4564;42.034;25.834;2022-09-16T08:37:14;99484.19;;;33.80;32.79
9059;BME280;4564;42.034;25.834;2022-09-16T08:39:40;99476.78;;;33.60;32.61
9059;BME280;4564;42.034;25.834;2022-09-16T08:42:11;99474.00;;;33.32;33.62
9059;BME280;4564;42.034;25.834;2022-09-16T08:44:43;99471.19;;;33.32;34.01
9059;BME280;4564;42.034;25.834;2022-09-16T08:47:20;99477.81;;;33.12;34.75
9059;BME280;4564;42.034;25.834;2022-09-16T08:49:51;99473.06;;;32.88;34.85
9059;BME280;4564;42.034;25.834;2022-09-16T08:52:22;99477.09;;;32.63;34.90
9059;BME280;4564;42.034;25.834;2022-09-16T08:54:54;99466.56;;;32.72;35.06
9059;BME280;4564;42.034;25.834;2022-09-16T08:57:23;99466.19;;;32.61;35.04
9059;BME280;4564;42.034;25.834;2022-09-16T08:59:52;99477.13;;;32.38;35.39
9059;BME280;4564;42.034;25.834;2022-09-16T09:02:23;99480.06;;;32.42;35.96
9059;BME280;4564;42.034;25.834;2022-09-16T09:04:54;99483.34;;;32.44;36.04
9059;BME280;4564;42.034;25.834;2022-09-16T09:07:23;99480.03;;;32.66;35.24
9059;BME280;4564;42.034;25.834;2022-09-16T09:09:56;99475.44;;;32.86;35.22
9059;BME280;4564;42.034;25.834;2022-09-16T09:12:28;99468.97;;;32.98;34.42
9059;BME280;4564;42.034;25.834;2022-09-16T09:15:02;99479.81;;;33.11;34.93
9059;BME280;4564;42.034;25.834;2022-09-16T09:17:36;99478.50;;;33.21;33.68
9059;BME280;4564;42.034;25.834;2022-09-16T09:20:12;99464.25;;;33.02;34.45
9059;BME280;4564;42.034;25.834;2022-09-16T09:22:46;99462.13;;;32.99;35.01
9059;BME280;4564;42.034;25.834;2022-09-16T09:25:21;99448.81;;;32.96;34.68
9059;BME280;4564;42.034;25.834;2022-09-16T09:27:53;99443.16;;;33.08;34.79
9059;BME280;4564;42.034;25.834;2022-09-16T09:30:24;99443.66;;;32.98;34.06
9059;BME280;4564;42.034;25.834;2022-09-16T09:33:08;99442.28;;;32.92;34.41
9059;BME280;4564;42.034;25.834;2022-09-16T09:35:45;99435.41;;;33.05;33.59
9059;BME280;4564;42.034;25.834;2022-09-16T09:38:26;99431.53;;;33.37;33.46
9059;BME280;4564;42.034;25.834;2022-09-16T09:40:55;99433.47;;;33.49;32.24
9059;BME280;4564;42.034;25.834;2022-09-16T09:43:27;99427.94;;;33.52;32.31
9059;BME280;4564;42.034;25.834;2022-09-16T09:45:58;99420.84;;;33.58;32.38
9059;BME280;4564;42.034;25.834;2022-09-16T09:48:28;99431.56;;;33.53;32.49
9059;BME280;4564;42.034;25.834;2022-09-16T09:50:59;99420.41;;;33.56;32.28
9059;BME280;4564;42.034;25.834;2022-09-16T09:53:30;99416.69;;;33.52;32.72
9059;BME280;4564;42.034;25.834;2022-09-16T09:55:59;99412.22;;;33.51;32.32
9059;BME280;4564;42.034;25.834;2022-09-16T09:58:31;99401.41;;;33.53;32.34
9059;BME280;4564;42.034;25.834;2022-09-16T10:00:59;99403.25;;;33.61;31.90
9059;BME280;4564;42.034;25.834;2022-09-16T10:03:28;99397.56;;;33.74;32.35
9059;BME280;4564;42.034;25.834;2022-09-16T10:05:55;99404.91;;;33.94;31.65
9059;BME280;4564;42.034;25.834;2022-09-16T10:08:25;99408.81;;;34.05;30.73
9059;BME280;4564;42.034;25.834;2022-09-16T10:10:52;99400.34;;;34.05;30.93
9059;BME280;4564;42.034;25.834;2022-09-16T10:13:20;99396.22;;;34.18;30.60
9059;BME280;4564;42.034;25.834;2022-09-16T10:15:47;99396.22;;;34.18;30.44
9059;BME280;4564;42.034;25.834;2022-09-16T10:18:20;99391.97;;;34.24;29.03
9059;BME280;4564;42.034;25.834;2022-09-16T10:20:54;99388.78;;;34.26;29.27
9059;BME280;4564;42.034;25.834;2022-09-16T10:23:24;99385.63;;;34.27;28.44
9059;BME280;4564;42.034;25.834;2022-09-16T10:26:01;99377.00;;;34.20;28.51
9059;BME280;4564;42.034;25.834;2022-09-16T10:28:29;99383.16;;;34.26;27.83
9059;BME280;4564;42.034;25.834;2022-09-16T10:30:57;99370.66;;;34.42;26.67
9059;BME280;4564;42.034;25.834;2022-09-16T10:33:24;99386.69;;;34.58;26.89
9059;BME280;4564;42.034;25.834;2022-09-16T10:35:54;99376.69;;;34.60;26.33
9059;BME280;4564;42.034;25.834;2022-09-16T10:38:24;99366.03;;;34.69;26.70
9059;BME280;4564;42.034;25.834;2022-09-16T10:40:52;99367.41;;;34.60;26.70
9059;BME280;4564;42.034;25.834;2022-09-16T10:43:20;99359.56;;;34.88;26.43
9059;BME280;4564;42.034;25.834;2022-09-16T10:45:47;99355.28;;;35.17;25.76
9059;BME280;4564;42.034;25.834;2022-09-16T10:48:15;99355.38;;;35.20;25.43
9059;BME280;4564;42.034;25.834;2022-09-16T10:50:50;99358.19;;;35.20;25.01
9059;BME280;4564;42.034;25.834;2022-09-16T10:53:21;99341.72;;;35.22;25.25
9059;BME280;4564;42.034;25.834;2022-09-16T10:55:56;99351.56;;;35.32;24.99
9059;BME280;4564;42.034;25.834;2022-09-16T10:58:24;99351.50;;;35.28;25.86
9059;BME280;4564;42.034;25.834;2022-09-16T11:00:56;99346.75;;;35.32;25.64
9059;BME280;4564;42.034;25.834;2022-09-16T11:03:31;99342.78;;;35.37;25.88
9059;BME280;4564;42.034;25.834;2022-09-16T11:06:05;99337.91;;;35.57;25.50
9059;BME280;4564;42.034;25.834;2022-09-16T11:08:39;99334.81;;;35.65;26.00
9059;BME280;4564;42.034;25.834;2022-09-16T11:11:12;99337.28;;;35.90;25.49
9059;BME280;4564;42.034;25.834;2022-09-16T11:13:45;99333.31;;;35.94;25.70
9059;BME280;4564;42.034;25.834;2022-09-16T11:16:29;99327.53;;;35.87;26.65
9059;BME280;4564;42.034;25.834;2022-09-16T11:18:59;99331.31;;;35.72;26.01
9059;BME280;4564;42.034;25.834;2022-09-16T11:21:31;99322.66;;;35.39;27.57
9059;BME280;4564;42.034;25.834;2022-09-16T11:24:19;99328.25;;;35.35;27.84
9059;BME280;4564;42.034;25.834;2022-09-16T11:26:52;99317.66;;;35.28;26.91
9059;BME280;4564;42.034;25.834;2022-09-16T11:29:28;99314.06;;;35.31;27.02
9059;BME280;4564;42.034;25.834;2022-09-16T11:32:01;99321.53;;;35.43;26.97
9059;BME280;4564;42.034;25.834;2022-09-16T11:34:33;99311.81;;;35.41;27.60
9059;BME280;4564;42.034;25.834;2022-09-16T11:37:05;99304.09;;;35.38;28.67
9059;BME280;4564;42.034;25.834;2022-09-16T11:39:38;99297.81;;;35.48;27.49
9059;BME280;4564;42.034;25.834;2022-09-16T11:42:13;99294.78;;;35.60;27.31
9059;BME280;4564;42.034;25.834;2022-09-16T11:44:43;99273.22;;;35.71;27.38
9059;BME280;4564;42.034;25.834;2022-09-16T11:49:57;99273.75;;;35.80;26.73
9059;BME280;4564;42.034;25.834;2022-09-16T11:52:31;99266.31;;;35.95;27.36
9059;BME280;4564;42.034;25.834;2022-09-16T11:55:12;99266.19;;;35.88;26.87
9059;BME280;4564;42.034;25.834;2022-09-16T11:57:42;99255.50;;;35.74;28.16
9059;BME280;4564;42.034;25.834;2022-09-16T12:00:12;99254.03;;;35.84;27.26
9059;BME280;4564;42.034;25.834;2022-09-16T12:02:41;99243.97;;;35.86;27.23
9059;BME280;4564;42.034;25.834;2022-09-16T12:05:12;99236.69;;;35.59;28.12
9059;BME280;4564;42.034;25.834;2022-09-16T12:07:41;99224.69;;;35.65;28.49
9059;BME280;4564;42.034;25.834;2022-09-16T12:10:11;99220.03;;;35.76;26.93
9059;BME280;4564;42.034;25.834;2022-09-16T12:12:42;99216.91;;;35.85;27.35
9059;BME280;4564;42.034;25.834;2022-09-16T12:15:13;99212.34;;;36.03;27.32
9059;BME280;4564;42.034;25.834;2022-09-16T12:17:42;99206.66;;;36.00;28.04
9059;BME280;4564;42.034;25.834;2022-09-16T12:20:14;99196.09;;;35.97;27.68
9059;BME280;4564;42.034;25.834;2022-09-16T12:22:43;99197.84;;;36.05;27.02
9059;BME280;4564;42.034;25.834;2022-09-16T12:25:11;99188.69;;;36.15;27.82
9059;BME280;4564;42.034;25.834;2022-09-16T12:27:42;99183.53;;;36.21;27.40
9059;BME280;4564;42.034;25.834;2022-09-16T12:30:14;99177.81;;;36.17;27.62
9059;BME280;4564;42.034;25.834;2022-09-16T12:32:44;99175.44;;;36.23;27.12
9059;BME280;4564;42.034;25.834;2022-09-16T12:35:13;99173.28;;;36.12;27.40
9059;BME280;4564;42.034;25.834;2022-09-16T12:37:43;99165.41;;;36.25;27.57
9059;BME280;4564;42.034;25.834;2022-09-16T12:40:12;99165.38;;;36.22;27.50
9059;BME280;4564;42.034;25.834;2022-09-16T12:45:35;99161.97;;;36.46;27.75
9059;BME280;4564;42.034;25.834;2022-09-16T12:48:19;99152.97;;;36.70;26.95
9059;BME280;4564;42.034;25.834;2022-09-16T12:53:51;99150.28;;;36.84;26.07
9059;BME280;4564;42.034;25.834;2022-09-16T12:56:31;99141.31;;;36.75;26.69
9059;BME280;4564;42.034;25.834;2022-09-16T12:59:12;99145.03;;;36.46;27.15
9059;BME280;4564;42.034;25.834;2022-09-16T13:01:43;99135.88;;;36.23;27.39
9059;BME280;4564;42.034;25.834;2022-09-16T13:04:13;99140.59;;;36.11;27.73
9059;BME280;4564;42.034;25.834;2022-09-16T13:06:43;99134.19;;;36.14;27.14
9059;BME280;4564;42.034;25.834;2022-09-16T13:09:13;99137.59;;;36.31;27.63
9059;BME280;4564;42.034;25.834;2022-09-16T13:11:41;99137.69;;;36.38;27.40
9059;BME280;4564;42.034;25.834;2022-09-16T13:14:13;99126.59;;;36.59;27.11
9059;BME280;4564;42.034;25.834;2022-09-16T13:16:52;99134.03;;;36.74;26.28
9059;BME280;4564;42.034;25.834;2022-09-16T13:19:31;99143.69;;;36.73;26.40
9059;BME280;4564;42.034;25.834;2022-09-16T13:22:00;99141.53;;;37.04;26.30
9059;BME280;4564;42.034;25.834;2022-09-16T13:24:33;99143.25;;;37.12;25.66
9059;BME280;4564;42.034;25.834;2022-09-16T13:27:12;99143.50;;;36.99;25.79
9059;BME280;4564;42.034;25.834;2022-09-16T13:29:45;99150.34;;;36.91;25.85
9059;BME280;4564;42.034;25.834;2022-09-16T13:32:26;99151.63;;;36.60;26.55
9059;BME280;4564;42.034;25.834;2022-09-16T13:35:00;99153.66;;;36.60;26.47